sensor_id;sensor_type;location;lat;lon;timestamp;P1;durP1;ratioP1;P2;durP2;ratioP2
3733;SDS011;1882;52.256;8.874;2023-09-12T00:01:22;7.13;;;3.70;;
3733;SDS011;1882;52.256;8.874;2023-09-12T00:03:49;6.40;;;3.70;;
3733;SDS011;1882;52.256;8.874;2023-09-12T00:06:15;4.57;;;4.00;;
3733;SDS011;1882;52.256;8.874;2023-09-12T00:08:48;5.57;;;4.13;;
3733;SDS011;1882;52.256;8.874;2023-09-12T00:11:21;6.53;;;4.00;;
3733;SDS011;1882;52.256;8.874;2023-09-12T00:13:53;6.53;;;4.20;;
3733;SDS011;1882;52.256;8.874;2023-09-12T00:16:19;7.13;;;4.77;;
3733;SDS011;1882;52.256;8.874;2023-09-12T00:18:47;7.60;;;4.43;;
3733;SDS011;1882;52.256;8.874;2023-09-12T00:21:21;15.50;;;4.53;;
3733;SDS011;1882;52.256;8.874;2023-09-12T00:23:48;6.07;;;4.63;;
3733;SDS011;1882;52.256;8.874;2023-09-12T00:26:15;5.47;;;4.20;;
3733;SDS011;1882;52.256;8.874;2023-09-12T00:28:42;4.80;;;4.30;;
3733;SDS011;1882;52.256;8.874;2023-09-12T00:31:09;9.33;;;4.00;;
3733;SDS011;1882;52.256;8.874;2023-09-12T00:33:36;4.33;;;3.93;;
3733;SDS011;1882;52.256;8.874;2023-09-12T00:36:03;4.00;;;3.60;;
3733;SDS011;1882;52.256;8.874;2023-09-12T00:38:30;4.63;;;3.60;;
3733;SDS011;1882;52.256;8.874;2023-09-12T00:40:57;3.80;;;3.40;;
3733;SDS011;1882;52.256;8.874;2023-09-12T00:43:23;7.90;;;4.10;;
3733;SDS011;1882;52.256;8.874;2023-09-12T00:45:50;5.10;;;3.67;;
3733;SDS011;1882;52.256;8.874;2023-09-12T00:48:18;4.40;;;3.40;;
3733;SDS011;1882;52.256;8.874;2023-09-12T00:50:45;9.00;;;3.47;;
3733;SDS011;1882;52.256;8.874;2023-09-12T00:53:13;3.73;;;3.43;;
3733;SDS011;1882;52.256;8.874;2023-09-12T00:55:42;4.07;;;3.53;;
3733;SDS011;1882;52.256;8.874;2023-09-12T00:58:11;6.40;;;4.27;;
3733;SDS011;1882;52.256;8.874;2023-09-12T01:00:40;6.77;;;3.53;;
3733;SDS011;1882;52.256;8.874;2023-09-12T01:03:07;3.80;;;3.40;;
3733;SDS011;1882;52.256;8.874;2023-09-12T01:05:34;5.30;;;3.73;;
3733;SDS011;1882;52.256;8.874;2023-09-12T01:08:01;4.53;;;3.50;;
3733;SDS011;1882;52.256;8.874;2023-09-12T01:10:28;4.33;;;3.93;;
3733;SDS011;1882;52.256;8.874;2023-09-12T01:12:55;5.17;;;4.67;;
3733;SDS011;1882;52.256;8.874;2023-09-12T01:15:22;5.57;;;4.43;;
3733;SDS011;1882;52.256;8.874;2023-09-12T01:17:48;7.03;;;4.90;;
3733;SDS011;1882;52.256;8.874;2023-09-12T01:20:19;4.63;;;4.07;;
3733;SDS011;1882;52.256;8.874;2023-09-12T01:25:56;4.33;;;3.90;;
3733;SDS011;1882;52.256;8.874;2023-09-12T01:28:29;5.03;;;4.00;;
3733;SDS011;1882;52.256;8.874;2023-09-12T01:31:02;5.83;;;3.20;;
3733;SDS011;1882;52.256;8.874;2023-09-12T01:33:30;3.50;;;3.20;;
3733;SDS011;1882;52.256;8.874;2023-09-12T01:35:57;6.00;;;3.23;;
3733;SDS011;1882;52.256;8.874;2023-09-12T01:38:23;4.10;;;3.27;;
3733;SDS011;1882;52.256;8.874;2023-09-12T01:40:50;4.97;;;3.80;;
3733;SDS011;1882;52.256;8.874;2023-09-12T01:43:26;4.03;;;3.67;;
3733;SDS011;1882;52.256;8.874;2023-09-12T01:45:54;6.57;;;4.90;;
3733;SDS011;1882;52.256;8.874;2023-09-12T01:48:23;9.10;;;6.00;;
3733;SDS011;1882;52.256;8.874;2023-09-12T01:50:53;13.53;;;9.93;;
3733;SDS011;1882;52.256;8.874;2023-09-12T01:53:20;13.13;;;9.93;;
3733;SDS011;1882;52.256;8.874;2023-09-12T01:55:47;13.13;;;10.50;;
3733;SDS011;1882;52.256;8.874;2023-09-12T01:58:14;14.27;;;11.43;;
3733;SDS011;1882;52.256;8.874;2023-09-12T02:00:41;14.77;;;10.10;;
3733;SDS011;1882;52.256;8.874;2023-09-12T02:03:08;14.67;;;10.90;;
3733;SDS011;1882;52.256;8.874;2023-09-12T02:05:37;15.03;;;10.40;;
3733;SDS011;1882;52.256;8.874;2023-09-12T02:08:04;13.57;;;10.20;;
3733;SDS011;1882;52.256;8.874;2023-09-12T02:10:31;15.50;;;11.70;;
3733;SDS011;1882;52.256;8.874;2023-09-12T02:12:58;13.83;;;10.60;;
3733;SDS011;1882;52.256;8.874;2023-09-12T02:15:25;16.63;;;11.00;;
3733;SDS011;1882;52.256;8.874;2023-09-12T02:17:56;16.90;;;10.67;;
3733;SDS011;1882;52.256;8.874;2023-09-12T02:20:26;21.10;;;12.80;;
3733;SDS011;1882;52.256;8.874;2023-09-12T02:23:04;14.83;;;11.40;;
3733;SDS011;1882;52.256;8.874;2023-09-12T02:25:31;20.10;;;12.33;;
3733;SDS011;1882;52.256;8.874;2023-09-12T02:28:00;19.30;;;12.23;;
3733;SDS011;1882;52.256;8.874;2023-09-12T02:30:30;18.03;;;13.20;;
3733;SDS011;1882;52.256;8.874;2023-09-12T02:33:02;19.03;;;13.87;;
3733;SDS011;1882;52.256;8.874;2023-09-12T02:35:36;20.17;;;14.17;;
3733;SDS011;1882;52.256;8.874;2023-09-12T02:38:06;31.93;;;18.80;;
3733;SDS011;1882;52.256;8.874;2023-09-12T02:40:33;23.37;;;18.03;;
3733;SDS011;1882;52.256;8.874;2023-09-12T02:43:00;26.17;;;18.80;;
3733;SDS011;1882;52.256;8.874;2023-09-12T02:45:27;27.13;;;20.10;;
3733;SDS011;1882;52.256;8.874;2023-09-12T02:47:57;28.40;;;21.20;;
3733;SDS011;1882;52.256;8.874;2023-09-12T02:50:27;35.53;;;23.53;;
3733;SDS011;1882;52.256;8.874;2023-09-12T02:52:58;37.27;;;24.50;;
3733;SDS011;1882;52.256;8.874;2023-09-12T02:55:32;30.60;;;22.97;;
3733;SDS011;1882;52.256;8.874;2023-09-12T02:57:59;35.57;;;23.97;;
3733;SDS011;1882;52.256;8.874;2023-09-12T03:00:38;40.13;;;26.07;;
3733;SDS011;1882;52.256;8.874;2023-09-12T03:03:06;41.10;;;27.93;;
3733;SDS011;1882;52.256;8.874;2023-09-12T03:05:33;49.33;;;29.33;;
3733;SDS011;1882;52.256;8.874;2023-09-12T03:08:00;39.40;;;27.33;;
3733;SDS011;1882;52.256;8.874;2023-09-12T03:10:28;44.00;;;29.50;;
3733;SDS011;1882;52.256;8.874;2023-09-12T03:13:05;45.93;;;29.87;;
3733;SDS011;1882;52.256;8.874;2023-09-12T03:15:35;47.67;;;29.07;;
3733;SDS011;1882;52.256;8.874;2023-09-12T03:18:03;39.33;;;26.43;;
3733;SDS011;1882;52.256;8.874;2023-09-12T03:20:30;50.13;;;28.37;;
3733;SDS011;1882;52.256;8.874;2023-09-12T03:23:01;45.00;;;28.00;;
3733;SDS011;1882;52.256;8.874;2023-09-12T03:25:37;33.73;;;23.63;;
3733;SDS011;1882;52.256;8.874;2023-09-12T03:28:05;38.87;;;25.37;;
3733;SDS011;1882;52.256;8.874;2023-09-12T03:30:32;37.40;;;25.30;;
3733;SDS011;1882;52.256;8.874;2023-09-12T03:33:03;40.97;;;25.13;;
3733;SDS011;1882;52.256;8.874;2023-09-12T03:35:34;35.50;;;23.87;;
3733;SDS011;1882;52.256;8.874;2023-09-12T03:38:03;33.60;;;22.77;;
3733;SDS011;1882;52.256;8.874;2023-09-12T03:40:31;33.23;;;21.47;;
3733;SDS011;1882;52.256;8.874;2023-09-12T03:43:00;36.93;;;22.77;;
3733;SDS011;1882;52.256;8.874;2023-09-12T03:45:31;34.20;;;22.00;;
3733;SDS011;1882;52.256;8.874;2023-09-12T03:48:03;36.47;;;22.33;;
3733;SDS011;1882;52.256;8.874;2023-09-12T03:50:35;34.43;;;21.53;;
3733;SDS011;1882;52.256;8.874;2023-09-12T03:53:01;35.70;;;22.70;;
3733;SDS011;1882;52.256;8.874;2023-09-12T03:55:28;35.43;;;22.33;;
3733;SDS011;1882;52.256;8.874;2023-09-12T03:57:55;37.00;;;22.80;;
3733;SDS011;1882;52.256;8.874;2023-09-12T04:00:29;36.30;;;24.53;;
3733;SDS011;1882;52.256;8.874;2023-09-12T04:03:12;35.97;;;24.93;;
3733;SDS011;1882;52.256;8.874;2023-09-12T04:05:39;39.83;;;24.47;;
3733;SDS011;1882;52.256;8.874;2023-09-12T04:08:06;36.77;;;24.07;;
3733;SDS011;1882;52.256;8.874;2023-09-12T04:10:33;36.43;;;24.40;;
3733;SDS011;1882;52.256;8.874;2023-09-12T04:13:02;36.30;;;23.70;;
3733;SDS011;1882;52.256;8.874;2023-09-12T04:15:29;31.73;;;20.90;;
3733;SDS011;1882;52.256;8.874;2023-09-12T04:18:05;25.40;;;17.40;;
3733;SDS011;1882;52.256;8.874;2023-09-12T04:20:34;28.87;;;17.80;;
3733;SDS011;1882;52.256;8.874;2023-09-12T04:23:01;24.27;;;17.03;;
3733;SDS011;1882;52.256;8.874;2023-09-12T04:25:31;17.57;;;13.17;;
3733;SDS011;1882;52.256;8.874;2023-09-12T04:28:02;25.03;;;14.57;;
3733;SDS011;1882;52.256;8.874;2023-09-12T04:30:32;24.10;;;16.60;;
3733;SDS011;1882;52.256;8.874;2023-09-12T04:33:02;26.27;;;16.60;;
3733;SDS011;1882;52.256;8.874;2023-09-12T04:35:35;27.20;;;16.77;;
3733;SDS011;1882;52.256;8.874;2023-09-12T04:38:09;26.83;;;18.60;;
3733;SDS011;1882;52.256;8.874;2023-09-12T04:40:36;32.83;;;21.30;;
3733;SDS011;1882;52.256;8.874;2023-09-12T04:43:03;29.20;;;21.67;;
3733;SDS011;1882;52.256;8.874;2023-09-12T04:45:32;33.87;;;21.10;;
3733;SDS011;1882;52.256;8.874;2023-09-12T04:48:03;25.43;;;17.43;;
3733;SDS011;1882;52.256;8.874;2023-09-12T04:50:30;27.97;;;17.93;;
3733;SDS011;1882;52.256;8.874;2023-09-12T04:53:06;24.10;;;15.80;;
3733;SDS011;1882;52.256;8.874;2023-09-12T04:55:35;26.27;;;17.60;;
3733;SDS011;1882;52.256;8.874;2023-09-12T04:58:02;28.03;;;17.73;;
3733;SDS011;1882;52.256;8.874;2023-09-12T05:00:32;28.07;;;17.67;;
3733;SDS011;1882;52.256;8.874;2023-09-12T05:03:01;27.80;;;18.00;;
3733;SDS011;1882;52.256;8.874;2023-09-12T05:05:30;27.63;;;18.60;;
3733;SDS011;1882;52.256;8.874;2023-09-12T05:08:00;29.43;;;19.47;;
3733;SDS011;1882;52.256;8.874;2023-09-12T05:10:35;31.80;;;18.53;;
3733;SDS011;1882;52.256;8.874;2023-09-12T05:13:04;21.30;;;15.30;;
3733;SDS011;1882;52.256;8.874;2023-09-12T05:15:42;24.07;;;15.80;;
3733;SDS011;1882;52.256;8.874;2023-09-12T05:18:09;23.80;;;17.60;;
3733;SDS011;1882;52.256;8.874;2023-09-12T05:20:45;25.77;;;18.40;;
3733;SDS011;1882;52.256;8.874;2023-09-12T05:23:11;25.87;;;16.40;;
3733;SDS011;1882;52.256;8.874;2023-09-12T05:25:38;19.90;;;14.20;;
3733;SDS011;1882;52.256;8.874;2023-09-12T05:28:05;21.93;;;14.50;;
3733;SDS011;1882;52.256;8.874;2023-09-12T05:30:39;24.43;;;17.37;;
3733;SDS011;1882;52.256;8.874;2023-09-12T05:33:07;27.40;;;18.63;;
3733;SDS011;1882;52.256;8.874;2023-09-12T05:35:37;28.73;;;18.23;;
3733;SDS011;1882;52.256;8.874;2023-09-12T05:38:11;26.50;;;18.37;;
3733;SDS011;1882;52.256;8.874;2023-09-12T05:40:38;23.00;;;17.30;;
3733;SDS011;1882;52.256;8.874;2023-09-12T05:43:05;23.63;;;17.80;;
3733;SDS011;1882;52.256;8.874;2023-09-12T05:45:35;30.40;;;17.33;;
3733;SDS011;1882;52.256;8.874;2023-09-12T05:48:05;19.50;;;14.20;;
3733;SDS011;1882;52.256;8.874;2023-09-12T05:50:36;18.30;;;11.53;;
3733;SDS011;1882;52.256;8.874;2023-09-12T05:53:16;14.60;;;11.27;;
3733;SDS011;1882;52.256;8.874;2023-09-12T05:55:43;17.63;;;11.80;;
3733;SDS011;1882;52.256;8.874;2023-09-12T06:01:07;18.77;;;12.67;;
3733;SDS011;1882;52.256;8.874;2023-09-12T06:09:18;12.93;;;9.87;;
3733;SDS011;1882;52.256;8.874;2023-09-12T06:11:45;13.13;;;9.17;;
3733;SDS011;1882;52.256;8.874;2023-09-12T06:14:12;12.83;;;9.00;;
3733;SDS011;1882;52.256;8.874;2023-09-12T06:16:38;12.97;;;8.83;;
3733;SDS011;1882;52.256;8.874;2023-09-12T06:19:07;14.70;;;8.73;;
3733;SDS011;1882;52.256;8.874;2023-09-12T06:21:37;12.10;;;8.50;;
3733;SDS011;1882;52.256;8.874;2023-09-12T06:26:44;11.47;;;8.10;;
3733;SDS011;1882;52.256;8.874;2023-09-12T06:29:11;12.50;;;9.10;;
3733;SDS011;1882;52.256;8.874;2023-09-12T06:31:59;11.13;;;8.50;;
3733;SDS011;1882;52.256;8.874;2023-09-12T06:34:35;15.03;;;8.77;;
3733;SDS011;1882;52.256;8.874;2023-09-12T06:37:16;13.70;;;8.70;;
3733;SDS011;1882;52.256;8.874;2023-09-12T06:39:49;12.43;;;8.60;;
3733;SDS011;1882;52.256;8.874;2023-09-12T06:42:16;9.90;;;8.70;;
3733;SDS011;1882;52.256;8.874;2023-09-12T06:44:46;11.97;;;8.70;;
3733;SDS011;1882;52.256;8.874;2023-09-12T06:47:16;10.83;;;7.10;;
3733;SDS011;1882;52.256;8.874;2023-09-12T06:49:43;11.53;;;7.27;;
3733;SDS011;1882;52.256;8.874;2023-09-12T06:52:13;13.50;;;7.70;;
3733;SDS011;1882;52.256;8.874;2023-09-12T06:54:42;12.10;;;7.80;;
3733;SDS011;1882;52.256;8.874;2023-09-12T06:57:11;12.50;;;8.73;;
3733;SDS011;1882;52.256;8.874;2023-09-12T06:59:39;12.87;;;7.63;;
3733;SDS011;1882;52.256;8.874;2023-09-12T07:02:06;14.07;;;8.00;;
3733;SDS011;1882;52.256;8.874;2023-09-12T07:04:33;12.63;;;8.23;;
3733;SDS011;1882;52.256;8.874;2023-09-12T07:07:02;10.63;;;8.00;;
3733;SDS011;1882;52.256;8.874;2023-09-12T07:09:30;19.53;;;9.60;;
3733;SDS011;1882;52.256;8.874;2023-09-12T07:11:57;11.00;;;7.30;;
3733;SDS011;1882;52.256;8.874;2023-09-12T07:14:24;12.60;;;8.10;;
3733;SDS011;1882;52.256;8.874;2023-09-12T07:16:54;11.23;;;8.70;;
3733;SDS011;1882;52.256;8.874;2023-09-12T07:19:21;16.00;;;8.90;;
3733;SDS011;1882;52.256;8.874;2023-09-12T07:21:48;13.03;;;8.97;;
3733;SDS011;1882;52.256;8.874;2023-09-12T07:24:14;15.70;;;9.67;;
3733;SDS011;1882;52.256;8.874;2023-09-12T07:26:41;14.40;;;9.63;;
3733;SDS011;1882;52.256;8.874;2023-09-12T07:29:08;15.13;;;9.50;;
3733;SDS011;1882;52.256;8.874;2023-09-12T07:31:34;15.17;;;11.30;;
3733;SDS011;1882;52.256;8.874;2023-09-12T07:34:01;19.93;;;12.40;;
3733;SDS011;1882;52.256;8.874;2023-09-12T07:36:32;16.80;;;11.73;;
3733;SDS011;1882;52.256;8.874;2023-09-12T07:38:58;17.10;;;11.60;;
3733;SDS011;1882;52.256;8.874;2023-09-12T07:41:26;13.73;;;10.10;;
3733;SDS011;1882;52.256;8.874;2023-09-12T07:43:52;13.90;;;10.07;;
3733;SDS011;1882;52.256;8.874;2023-09-12T07:46:19;21.77;;;9.70;;
3733;SDS011;1882;52.256;8.874;2023-09-12T07:48:46;14.30;;;9.57;;
3733;SDS011;1882;52.256;8.874;2023-09-12T07:51:16;15.10;;;9.70;;
3733;SDS011;1882;52.256;8.874;2023-09-12T07:53:45;11.93;;;8.47;;
3733;SDS011;1882;52.256;8.874;2023-09-12T07:56:12;12.57;;;9.13;;
3733;SDS011;1882;52.256;8.874;2023-09-12T07:58:39;13.17;;;9.30;;
3733;SDS011;1882;52.256;8.874;2023-09-12T08:01:06;13.37;;;9.83;;
3733;SDS011;1882;52.256;8.874;2023-09-12T08:03:36;12.70;;;8.87;;
3733;SDS011;1882;52.256;8.874;2023-09-12T08:06:05;12.63;;;9.53;;
3733;SDS011;1882;52.256;8.874;2023-09-12T08:08:32;13.53;;;9.23;;
3733;SDS011;1882;52.256;8.874;2023-09-12T08:10:58;13.50;;;9.00;;
3733;SDS011;1882;52.256;8.874;2023-09-12T08:13:26;14.60;;;9.90;;
3733;SDS011;1882;52.256;8.874;2023-09-12T08:15:54;15.40;;;10.70;;
3733;SDS011;1882;52.256;8.874;2023-09-12T08:18:25;18.80;;;11.43;;
3733;SDS011;1882;52.256;8.874;2023-09-12T08:20:56;15.40;;;10.13;;
3733;SDS011;1882;52.256;8.874;2023-09-12T08:23:23;16.33;;;10.83;;
3733;SDS011;1882;52.256;8.874;2023-09-12T08:25:50;17.20;;;10.50;;
3733;SDS011;1882;52.256;8.874;2023-09-12T08:28:19;24.53;;;11.23;;
3733;SDS011;1882;52.256;8.874;2023-09-12T08:30:46;20.30;;;10.43;;
3733;SDS011;1882;52.256;8.874;2023-09-12T08:33:13;10.93;;;6.43;;
3733;SDS011;1882;52.256;8.874;2023-09-12T08:35:40;16.47;;;8.17;;
3733;SDS011;1882;52.256;8.874;2023-09-12T08:38:07;16.13;;;8.70;;
3733;SDS011;1882;52.256;8.874;2023-09-12T08:40:41;13.40;;;8.00;;
3733;SDS011;1882;52.256;8.874;2023-09-12T08:43:14;13.47;;;8.30;;
3733;SDS011;1882;52.256;8.874;2023-09-12T08:45:41;11.60;;;7.70;;
3733;SDS011;1882;52.256;8.874;2023-09-12T08:48:11;12.90;;;7.87;;
3733;SDS011;1882;52.256;8.874;2023-09-12T08:50:38;14.60;;;7.53;;
3733;SDS011;1882;52.256;8.874;2023-09-12T08:53:05;9.60;;;6.37;;
3733;SDS011;1882;52.256;8.874;2023-09-12T08:55:34;7.17;;;5.93;;
3733;SDS011;1882;52.256;8.874;2023-09-12T08:58:03;10.93;;;6.93;;
3733;SDS011;1882;52.256;8.874;2023-09-12T09:00:33;10.30;;;6.10;;
3733;SDS011;1882;52.256;8.874;2023-09-12T09:03:03;11.20;;;7.27;;
3733;SDS011;1882;52.256;8.874;2023-09-12T09:05:31;15.20;;;7.87;;
3733;SDS011;1882;52.256;8.874;2023-09-12T09:08:00;13.43;;;7.10;;
3733;SDS011;1882;52.256;8.874;2023-09-12T09:10:29;12.30;;;7.83;;
3733;SDS011;1882;52.256;8.874;2023-09-12T09:13:15;11.90;;;7.77;;
3733;SDS011;1882;52.256;8.874;2023-09-12T09:15:41;14.53;;;8.40;;
3733;SDS011;1882;52.256;8.874;2023-09-12T09:18:09;13.43;;;9.27;;
3733;SDS011;1882;52.256;8.874;2023-09-12T09:20:39;12.97;;;8.90;;
3733;SDS011;1882;52.256;8.874;2023-09-12T09:23:08;16.27;;;9.40;;
3733;SDS011;1882;52.256;8.874;2023-09-12T09:25:40;14.03;;;9.00;;
3733;SDS011;1882;52.256;8.874;2023-09-12T09:28:20;15.60;;;9.10;;
3733;SDS011;1882;52.256;8.874;2023-09-12T09:30:48;13.47;;;8.50;;
3733;SDS011;1882;52.256;8.874;2023-09-12T09:33:17;10.57;;;8.70;;
3733;SDS011;1882;52.256;8.874;2023-09-12T09:35:48;14.97;;;8.90;;
3733;SDS011;1882;52.256;8.874;2023-09-12T09:38:19;11.63;;;8.27;;
3733;SDS011;1882;52.256;8.874;2023-09-12T09:40:47;12.00;;;8.23;;
3733;SDS011;1882;52.256;8.874;2023-09-12T09:43:18;11.70;;;8.33;;
3733;SDS011;1882;52.256;8.874;2023-09-12T09:45:46;11.07;;;8.37;;
3733;SDS011;1882;52.256;8.874;2023-09-12T09:48:21;14.73;;;9.70;;
3733;SDS011;1882;52.256;8.874;2023-09-12T09:50:49;14.93;;;10.43;;
3733;SDS011;1882;52.256;8.874;2023-09-12T09:53:21;16.80;;;9.90;;
3733;SDS011;1882;52.256;8.874;2023-09-12T09:56:07;22.23;;;10.30;;
3733;SDS011;1882;52.256;8.874;2023-09-12T09:58:36;16.40;;;10.67;;
3733;SDS011;1882;52.256;8.874;2023-09-12T10:01:05;15.80;;;10.40;;
3733;SDS011;1882;52.256;8.874;2023-09-12T10:03:32;16.13;;;10.87;;
3733;SDS011;1882;52.256;8.874;2023-09-12T10:06:03;14.70;;;10.13;;
3733;SDS011;1882;52.256;8.874;2023-09-12T10:08:31;15.73;;;9.60;;
3733;SDS011;1882;52.256;8.874;2023-09-12T10:10:58;9.53;;;6.87;;
3733;SDS011;1882;52.256;8.874;2023-09-12T10:13:26;8.70;;;6.37;;
3733;SDS011;1882;52.256;8.874;2023-09-12T10:15:58;9.63;;;6.50;;
3733;SDS011;1882;52.256;8.874;2023-09-12T10:18:28;9.00;;;5.80;;
3733;SDS011;1882;52.256;8.874;2023-09-12T10:20:58;10.43;;;5.43;;
3733;SDS011;1882;52.256;8.874;2023-09-12T10:23:36;8.73;;;6.47;;
3733;SDS011;1882;52.256;8.874;2023-09-12T10:26:12;8.30;;;6.67;;
3733;SDS011;1882;52.256;8.874;2023-09-12T10:28:40;10.37;;;6.50;;
3733;SDS011;1882;52.256;8.874;2023-09-12T10:31:08;11.87;;;7.93;;
3733;SDS011;1882;52.256;8.874;2023-09-12T10:33:38;10.50;;;6.63;;
3733;SDS011;1882;52.256;8.874;2023-09-12T10:36:06;7.73;;;5.97;;
3733;SDS011;1882;52.256;8.874;2023-09-12T10:38:39;9.60;;;5.63;;
3733;SDS011;1882;52.256;8.874;2023-09-12T10:41:13;7.47;;;5.70;;
3733;SDS011;1882;52.256;8.874;2023-09-12T10:43:41;7.57;;;5.80;;
3733;SDS011;1882;52.256;8.874;2023-09-12T10:46:10;8.73;;;6.57;;
3733;SDS011;1882;52.256;8.874;2023-09-12T10:48:36;11.43;;;6.20;;
3733;SDS011;1882;52.256;8.874;2023-09-12T10:51:03;8.60;;;5.40;;
3733;SDS011;1882;52.256;8.874;2023-09-12T10:53:31;5.93;;;5.10;;
3733;SDS011;1882;52.256;8.874;2023-09-12T11:01:40;6.63;;;4.27;;
3733;SDS011;1882;52.256;8.874;2023-09-12T11:06:49;5.20;;;4.37;;
3733;SDS011;1882;52.256;8.874;2023-09-12T11:09:17;3.93;;;3.53;;
3733;SDS011;1882;52.256;8.874;2023-09-12T11:11:47;3.33;;;2.90;;
3733;SDS011;1882;52.256;8.874;2023-09-12T11:14:14;10.20;;;3.17;;
3733;SDS011;1882;52.256;8.874;2023-09-12T11:16:42;3.87;;;3.53;;
3733;SDS011;1882;52.256;8.874;2023-09-12T11:21:50;5.10;;;2.70;;
3733;SDS011;1882;52.256;8.874;2023-09-12T11:24:17;2.70;;;2.50;;
3733;SDS011;1882;52.256;8.874;2023-09-12T11:27:01;3.60;;;2.80;;
3733;SDS011;1882;52.256;8.874;2023-09-12T11:29:37;3.67;;;2.70;;
3733;SDS011;1882;52.256;8.874;2023-09-12T11:32:06;3.03;;;2.77;;
3733;SDS011;1882;52.256;8.874;2023-09-12T11:34:38;6.10;;;3.50;;
3733;SDS011;1882;52.256;8.874;2023-09-12T11:37:08;8.03;;;4.13;;
3733;SDS011;1882;52.256;8.874;2023-09-12T11:39:36;6.70;;;3.77;;
3733;SDS011;1882;52.256;8.874;2023-09-12T11:42:03;4.20;;;3.53;;
3733;SDS011;1882;52.256;8.874;2023-09-12T11:44:30;5.23;;;4.23;;
3733;SDS011;1882;52.256;8.874;2023-09-12T11:47:00;6.20;;;4.20;;
3733;SDS011;1882;52.256;8.874;2023-09-12T11:49:36;5.60;;;4.43;;
3733;SDS011;1882;52.256;8.874;2023-09-12T11:52:08;6.40;;;3.83;;
3733;SDS011;1882;52.256;8.874;2023-09-12T11:54:43;4.63;;;3.87;;
3733;SDS011;1882;52.256;8.874;2023-09-12T11:57:16;5.27;;;3.47;;
3733;SDS011;1882;52.256;8.874;2023-09-12T11:59:44;4.03;;;3.63;;
3733;SDS011;1882;52.256;8.874;2023-09-12T12:02:18;4.83;;;3.37;;
3733;SDS011;1882;52.256;8.874;2023-09-12T12:04:45;3.57;;;3.27;;
3733;SDS011;1882;52.256;8.874;2023-09-12T12:07:14;4.60;;;3.30;;
3733;SDS011;1882;52.256;8.874;2023-09-12T12:09:50;4.43;;;3.07;;
3733;SDS011;1882;52.256;8.874;2023-09-12T12:12:17;3.10;;;2.90;;
3733;SDS011;1882;52.256;8.874;2023-09-12T12:14:45;4.07;;;3.13;;
3733;SDS011;1882;52.256;8.874;2023-09-12T12:17:21;3.30;;;3.00;;
3733;SDS011;1882;52.256;8.874;2023-09-12T12:19:51;5.30;;;3.27;;
3733;SDS011;1882;52.256;8.874;2023-09-12T12:22:22;3.80;;;3.40;;
3733;SDS011;1882;52.256;8.874;2023-09-12T12:24:49;3.13;;;2.90;;
3733;SDS011;1882;52.256;8.874;2023-09-12T12:27:18;3.33;;;3.03;;
3733;SDS011;1882;52.256;8.874;2023-09-12T12:29:45;3.80;;;3.50;;
3733;SDS011;1882;52.256;8.874;2023-09-12T12:32:20;7.43;;;3.30;;
3733;SDS011;1882;52.256;8.874;2023-09-12T12:34:48;4.20;;;3.23;;
3733;SDS011;1882;52.256;8.874;2023-09-12T12:37:36;3.50;;;3.10;;
3733;SDS011;1882;52.256;8.874;2023-09-12T12:40:06;7.33;;;3.80;;
3733;SDS011;1882;52.256;8.874;2023-09-12T12:42:39;4.40;;;3.40;;
3733;SDS011;1882;52.256;8.874;2023-09-12T12:45:21;3.60;;;3.30;;
3733;SDS011;1882;52.256;8.874;2023-09-12T12:47:59;4.33;;;3.70;;
3733;SDS011;1882;52.256;8.874;2023-09-12T12:50:27;3.70;;;3.30;;
3733;SDS011;1882;52.256;8.874;2023-09-12T12:53:00;5.17;;;3.20;;
3733;SDS011;1882;52.256;8.874;2023-09-12T12:55:34;5.37;;;3.40;;
3733;SDS011;1882;52.256;8.874;2023-09-12T12:58:05;3.50;;;3.20;;
3733;SDS011;1882;52.256;8.874;2023-09-12T13:00:37;3.77;;;3.47;;
3733;SDS011;1882;52.256;8.874;2023-09-12T13:03:08;4.77;;;3.40;;
3733;SDS011;1882;52.256;8.874;2023-09-12T13:05:38;3.80;;;3.40;;
3733;SDS011;1882;52.256;8.874;2023-09-12T13:08:07;3.87;;;3.40;;
3733;SDS011;1882;52.256;8.874;2023-09-12T13:10:37;3.43;;;3.13;;
3733;SDS011;1882;52.256;8.874;2023-09-12T13:13:07;5.57;;;3.27;;
3733;SDS011;1882;52.256;8.874;2023-09-12T13:15:37;4.10;;;3.43;;
3733;SDS011;1882;52.256;8.874;2023-09-12T13:18:08;3.80;;;3.47;;
3733;SDS011;1882;52.256;8.874;2023-09-12T13:20:38;6.30;;;3.97;;
3733;SDS011;1882;52.256;8.874;2023-09-12T13:23:08;7.97;;;3.80;;
3733;SDS011;1882;52.256;8.874;2023-09-12T13:25:35;6.77;;;4.13;;
3733;SDS011;1882;52.256;8.874;2023-09-12T13:28:02;4.20;;;3.80;;
3733;SDS011;1882;52.256;8.874;2023-09-12T13:30:32;4.30;;;3.83;;
3733;SDS011;1882;52.256;8.874;2023-09-12T13:33:08;4.83;;;4.07;;
3733;SDS011;1882;52.256;8.874;2023-09-12T13:35:35;6.57;;;4.40;;
3733;SDS011;1882;52.256;8.874;2023-09-12T13:38:02;5.37;;;3.87;;
3733;SDS011;1882;52.256;8.874;2023-09-12T13:40:43;10.77;;;4.00;;
3733;SDS011;1882;52.256;8.874;2023-09-12T13:43:11;11.30;;;4.43;;
3733;SDS011;1882;52.256;8.874;2023-09-12T13:45:42;6.40;;;4.13;;
3733;SDS011;1882;52.256;8.874;2023-09-12T13:48:11;6.53;;;3.93;;
3733;SDS011;1882;52.256;8.874;2023-09-12T13:50:38;5.57;;;4.53;;
3733;SDS011;1882;52.256;8.874;2023-09-12T13:53:08;5.97;;;4.20;;
3733;SDS011;1882;52.256;8.874;2023-09-12T13:55:43;6.77;;;4.30;;
3733;SDS011;1882;52.256;8.874;2023-09-12T13:58:10;6.47;;;4.23;;
3733;SDS011;1882;52.256;8.874;2023-09-12T14:00:37;9.53;;;4.73;;
3733;SDS011;1882;52.256;8.874;2023-09-12T14:03:11;5.97;;;4.50;;
3733;SDS011;1882;52.256;8.874;2023-09-12T14:05:38;5.60;;;4.40;;
3733;SDS011;1882;52.256;8.874;2023-09-12T14:08:08;4.70;;;4.30;;
3733;SDS011;1882;52.256;8.874;2023-09-12T14:10:42;6.27;;;4.20;;
3733;SDS011;1882;52.256;8.874;2023-09-12T14:13:10;5.07;;;4.60;;
3733;SDS011;1882;52.256;8.874;2023-09-12T14:15:47;10.63;;;4.60;;
3733;SDS011;1882;52.256;8.874;2023-09-12T14:18:17;6.13;;;4.30;;
3733;SDS011;1882;52.256;8.874;2023-09-12T14:20:45;7.37;;;4.83;;
3733;SDS011;1882;52.256;8.874;2023-09-12T14:23:13;6.27;;;4.77;;
3733;SDS011;1882;52.256;8.874;2023-09-12T14:25:49;5.43;;;4.67;;
3733;SDS011;1882;52.256;8.874;2023-09-12T14:28:16;14.10;;;5.10;;
3733;SDS011;1882;52.256;8.874;2023-09-12T14:30:52;6.33;;;4.60;;
3733;SDS011;1882;52.256;8.874;2023-09-12T14:33:19;10.50;;;5.63;;
3733;SDS011;1882;52.256;8.874;2023-09-12T14:35:46;7.07;;;5.10;;
3733;SDS011;1882;52.256;8.874;2023-09-12T14:38:13;8.20;;;5.20;;
3733;SDS011;1882;52.256;8.874;2023-09-12T14:40:40;6.00;;;4.70;;
3733;SDS011;1882;52.256;8.874;2023-09-12T14:43:11;7.20;;;5.20;;
3733;SDS011;1882;52.256;8.874;2023-09-12T14:45:38;7.00;;;5.23;;
3733;SDS011;1882;52.256;8.874;2023-09-12T14:48:05;7.27;;;5.30;;
3733;SDS011;1882;52.256;8.874;2023-09-12T14:50:33;7.00;;;5.03;;
3733;SDS011;1882;52.256;8.874;2023-09-12T14:53:10;6.00;;;5.40;;
3733;SDS011;1882;52.256;8.874;2023-09-12T14:55:39;5.80;;;4.93;;
3733;SDS011;1882;52.256;8.874;2023-09-12T14:58:07;7.07;;;5.27;;
3733;SDS011;1882;52.256;8.874;2023-09-12T15:00:40;7.30;;;5.83;;
3733;SDS011;1882;52.256;8.874;2023-09-12T15:03:07;7.67;;;6.00;;
3733;SDS011;1882;52.256;8.874;2023-09-12T15:05:34;7.40;;;5.60;;
3733;SDS011;1882;52.256;8.874;2023-09-12T15:08:06;5.60;;;5.00;;
3733;SDS011;1882;52.256;8.874;2023-09-12T15:10:33;6.40;;;5.03;;
3733;SDS011;1882;52.256;8.874;2023-09-12T15:13:06;7.40;;;5.20;;
3733;SDS011;1882;52.256;8.874;2023-09-12T15:15:40;10.27;;;5.47;;
3733;SDS011;1882;52.256;8.874;2023-09-12T15:18:07;7.93;;;4.90;;
3733;SDS011;1882;52.256;8.874;2023-09-12T15:20:52;7.23;;;5.37;;
3733;SDS011;1882;52.256;8.874;2023-09-12T15:23:19;9.83;;;5.93;;
3733;SDS011;1882;52.256;8.874;2023-09-12T15:25:55;6.30;;;5.60;;
3733;SDS011;1882;52.256;8.874;2023-09-12T15:34:25;6.70;;;5.60;;
3733;SDS011;1882;52.256;8.874;2023-09-12T15:37:05;7.93;;;5.43;;
3733;SDS011;1882;52.256;8.874;2023-09-12T15:39:50;7.07;;;6.10;;
3733;SDS011;1882;52.256;8.874;2023-09-12T15:46:01;6.90;;;5.30;;
3733;SDS011;1882;52.256;8.874;2023-09-12T15:48:28;7.23;;;5.90;;
3733;SDS011;1882;52.256;8.874;2023-09-12T15:51:06;7.10;;;6.00;;
3733;SDS011;1882;52.256;8.874;2023-09-12T15:53:35;7.07;;;5.27;;